Time;durP1;ratioP1;P1;durP2;ratioP2;P2;SDS_P1;SDS_P2;PMS_P1;PMS_P2;Temp;Humidity;BMP_temperature;BMP_pressure;BME280_temperature;BME280_humidity;BME280_pressure;Samples;Min_cycle;Max_cycle;Signal;HPM_P1;HPM_P2
2024/01/28 00:23:59;;;;;;;15.43;13.23;;;1.60;99.90;;;;;;6055775;23;20444;-78
2024/01/28 00:30:16;;;;;;;20.23;13.87;;;1.20;99.90;;;;;;5929675;23;20451;-77
2024/01/28 00:33:16;;;;;;;;;;;;;;;;;;;;;
2024/01/28 00:37:00;;;;;;;;;;;;;;;;;;;;;
2024/01/28 02:39:36;;;;;;;;;;;;;;;;;;;;;
2024/01/28 02:48:28;;;;;;;17.00;11.70;;;0.50;99.90;;;;;;6189098;23;20432;-77
2024/01/28 02:51:59;;;;;;;16.17;13.50;;;0.50;99.90;;;;;;6147020;23;20409;-78
2024/01/28 02:57:52;;;;;;;20.63;13.10;;;0.40;99.90;;;;;;6188249;23;20529;-77
2024/01/28 03:07:19;;;;;;;24.43;12.70;;;0.30;99.90;;;;;;6190239;23;20456;-79
2024/01/28 03:10:23;;;;;;;14.73;12.73;;;0.20;99.90;;;;;;6196361;23;20659;-78
2024/01/28 03:19:22;;;;;;;14.43;12.83;;;0.20;99.90;;;;;;6196430;23;20782;-78
2024/01/28 03:25:29;;;;;;;16.53;13.27;;;0.30;99.90;;;;;;6196270;23;20422;-78
2024/01/28 03:28:27;;;;;;;15.43;12.90;;;0.30;99.90;;;;;;6197394;23;20443;-80
2024/01/28 03:34:33;;;;;;;19.20;12.87;;;0.20;99.90;;;;;;6188251;23;20455;-78
2024/01/28 03:37:22;;;;;;;15.60;12.80;;;0.40;99.90;;;;;;6198401;23;20394;-79
2024/01/28 03:40:23;;;;;;;16.90;13.43;;;0.20;99.90;;;;;;6200810;23;20407;-80
2024/01/28 03:43:10;;;;;;;14.80;13.20;;;0.30;99.90;;;;;;6201067;23;20549;-79
2024/01/28 03:46:01;;;;;;;16.87;12.67;;;0.50;99.90;;;;;;6200556;23;20409;-77
2024/01/28 03:48:47;;;;;;;16.10;14.47;;;0.20;99.90;;;;;;6168404;23;20490;-79
2024/01/28 03:51:37;;;;;;;14.73;13.17;;;0.20;99.90;;;;;;6167297;23;20417;-79
2024/01/28 03:54:29;;;;;;;17.80;13.20;;;0.20;99.90;;;;;;6166102;23;20439;-79
2024/01/28 03:57:27;;;;;;;19.70;13.10;;;0.20;99.90;;;;;;6166212;23;20428;-79
2024/01/28 04:00:22;;;;;;;19.03;14.30;;;0.20;99.90;;;;;;6165843;23;20422;-79
2024/01/28 04:03:17;;;;;;;13.90;12.40;;;0.10;99.90;;;;;;6166068;23;20446;-78
2024/01/28 04:06:04;;;;;;;18.47;12.60;;;0.10;99.90;;;;;;6167741;23;20397;-77
2024/01/28 04:11:56;;;;;;;24.60;14.03;;;0.10;99.90;;;;;;6162908;23;20520;-77
2024/01/28 04:14:58;;;;;;;16.07;12.57;;;0.10;99.90;;;;;;6169573;23;20480;-77
2024/01/28 04:17:34;;;;;;;16.00;13.30;;;0.00;99.90;;;;;;6167784;23;20440;-79
2024/01/28 04:23:39;;;;;;;16.07;12.83;;;0.00;99.90;;;;;;6158370;23;20536;-78
2024/01/28 04:26:45;;;;;;;18.30;13.83;;;0.00;99.90;;;;;;6108417;23;20415;-80
2024/01/28 04:29:47;;;;;;;14.57;13.17;;;-0.10;99.90;;;;;;6159304;23;20439;-79
2024/01/28 04:32:59;;;;;;;;;;;;;;;;;;;;;
2024/01/28 04:55:34;;;;;;;;;;;;;;;;;;;;;
2024/01/28 04:58:55;;;;;;;;;;;;;;;;;;;;;
2024/01/28 05:18:46;;;;;;;14.03;12.67;;;-0.50;99.90;;;;;;6051532;23;20396;-79
2024/01/28 05:26:01;;;;;;;;;;;;;;;;;;;;;
2024/01/28 05:29:17;;;;;;;;;;;;;;;;;;;;;
2024/01/28 05:38:44;;;;;;;;;;;;;;;;;;;;;
2024/01/28 05:52:18;;;;;;;14.43;12.30;;;-0.30;99.90;;;;;;6030086;23;20395;-80
2024/01/28 05:58:39;;;;;;;16.20;12.90;;;-0.40;99.90;;;;;;6109218;23;20391;-77
2024/01/28 06:05:03;;;;;;;;;;;;;;;;;;;;;
2024/01/28 06:23:54;;;;;;;19.40;16.77;;;-0.10;99.90;;;;;;6191514;23;20534;-79
2024/01/28 06:26:35;;;;;;;20.10;15.93;;;0.00;99.90;;;;;;6193709;23;20798;-79
2024/01/28 06:33:13;;;;;;;;;;;;;;;;;;;;;
2024/01/28 06:42:42;;;;;;;16.80;14.00;;;-0.60;99.90;;;;;;6066632;23;20462;-79
2024/01/28 06:46:04;;;;;;;19.70;13.87;;;-0.10;99.90;;;;;;6208071;23;20414;-81
2024/01/28 06:49:29;;;;;;;16.27;13.60;;;-0.30;99.90;;;;;;6205399;23;20754;-80
2024/01/28 06:58:41;;;;;;;14.13;12.73;;;-0.40;99.90;;;;;;6154067;23;20431;-78
2024/01/28 07:08:18;;;;;;;15.87;14.10;;;-0.40;99.90;;;;;;6182826;23;20390;-79
2024/01/28 07:14:25;;;;;;;17.00;13.60;;;-0.40;99.90;;;;;;6041751;23;20570;-79
2024/01/28 07:17:11;;;;;;;16.70;13.03;;;-0.40;99.90;;;;;;6191919;23;20416;-78
2024/01/28 07:20:05;;;;;;;15.53;13.70;;;-0.40;99.90;;;;;;6190923;23;20871;-79
2024/01/28 07:23:20;;;;;;;;;;;;;;;;;;;;;
2024/01/28 07:26:35;;;;;;;17.00;14.57;;;-0.40;99.90;;;;;;6188459;23;20711;-80
2024/01/28 07:30:06;;;;;;;17.83;13.47;;;-0.30;99.90;;;;;;6191033;23;20414;-78
2024/01/28 07:33:23;;;;;;;19.27;14.90;;;-0.30;99.90;;;;;;6089515;23;20819;-79
2024/01/28 07:50:41;;;;;;;16.67;14.80;;;-0.20;99.90;;;;;;6039277;23;20482;-79
2024/01/28 08:25:31;;;;;;;;;;;;;;;;;;;;;
2024/01/28 08:39:09;;;;;;;15.63;13.67;;;3.00;99.90;;;;;;5790634;24;20477;-77
2024/01/28 08:59:08;;;;;;;16.43;13.00;;;5.00;99.90;;;;;;5948184;23;20902;-77
2024/01/28 09:02:10;;;;;;;15.27;13.73;;;5.40;99.90;;;;;;6034564;23;20408;-80
2024/01/28 09:05:07;;;;;;;15.93;14.20;;;5.60;99.90;;;;;;6128327;23;20413;-80
2024/01/28 09:28:57;;;;;;;;;;;;;;;;;;;;;
2024/01/28 11:14:00;;;;;;;;;;;;;;;;;;;;;
2024/01/28 11:30:40;;;;;;;;;;;;;;;;;;;;;
2024/01/28 12:28:53;;;;;;;7.60;6.97;;;14.90;99.90;;;;;;5821390;24;20418;-79
2024/01/28 13:00:06;;;;;;;;;;;;;;;;;;;;;
2024/01/28 13:37:06;;;;;;;4.50;4.20;;;14.30;95.90;;;;;;5863300;23;20393;-77
2024/01/28 13:39:42;;;;;;;4.60;4.20;;;14.40;95.50;;;;;;6140023;23;20890;-80
2024/01/28 13:42:10;;;;;;;4.77;4.37;;;14.40;95.50;;;;;;6160055;23;20738;-79
2024/01/28 13:44:39;;;;;;;4.80;4.37;;;14.20;95.60;;;;;;6158067;23;20404;-80
2024/01/28 13:47:10;;;;;;;5.17;4.67;;;14.00;95.90;;;;;;6157003;23;20427;-80
2024/01/28 13:49:39;;;;;;;5.27;4.83;;;14.00;95.90;;;;;;6158179;23;20411;-78
2024/01/28 13:52:12;;;;;;;4.77;4.37;;;14.00;95.80;;;;;;6156259;23;20440;-78
2024/01/28 13:54:44;;;;;;;4.63;4.33;;;14.00;96.10;;;;;;6156807;23;20383;-80
2024/01/28 13:57:20;;;;;;;5.30;4.80;;;13.90;96.00;;;;;;6156310;23;20423;-78
2024/01/28 13:59:48;;;;;;;4.70;4.30;;;13.80;96.00;;;;;;6156771;23;20462;-79
2024/01/28 14:02:23;;;;;;;4.47;4.17;;;13.80;96.20;;;;;;6159362;23;20442;-84
2024/01/28 14:05:00;;;;;;;5.87;5.30;;;13.80;96.40;;;;;;6157638;23;20412;-79
2024/01/28 14:07:30;;;;;;;3.73;3.37;;;13.70;96.30;;;;;;6158780;23;20432;-77
2024/01/28 14:10:00;;;;;;;4.03;3.73;;;13.70;95.60;;;;;;6160716;23;20404;-79
2024/01/28 14:12:31;;;;;;;4.10;3.80;;;13.70;95.70;;;;;;6160935;23;20443;-77
2024/01/28 14:15:02;;;;;;;4.00;3.70;;;13.70;94.80;;;;;;6160746;23;20415;-77
2024/01/28 14:17:29;;;;;;;3.53;3.23;;;13.80;94.10;;;;;;6159666;23;20414;-77
2024/01/28 14:19:57;;;;;;;4.30;4.00;;;13.60;93.70;;;;;;6163938;23;20408;-77
2024/01/28 14:22:27;;;;;;;4.20;3.63;;;13.60;94.30;;;;;;6161079;23;20396;-79
2024/01/28 14:24:56;;;;;;;3.90;3.53;;;13.60;94.10;;;;;;6162792;23;20420;-78
2024/01/28 14:27:35;;;;;;;3.57;3.30;;;13.60;93.40;;;;;;6161556;23;20396;-78
2024/01/28 14:30:05;;;;;;;4.30;4.00;;;13.60;93.70;;;;;;6161798;23;20447;-76
2024/01/28 14:32:38;;;;;;;3.57;3.27;;;13.50;93.80;;;;;;6163410;23;20444;-79
2024/01/28 14:38:43;;;;;;;3.80;3.50;;;13.30;94.20;;;;;;6137465;23;20492;-78
2024/01/28 14:41:35;;;;;;;4.27;3.97;;;13.10;94.60;;;;;;6161936;23;20412;-78
2024/01/28 14:44:03;;;;;;;4.73;4.33;;;13.20;95.10;;;;;;6148198;23;20503;-78
2024/01/28 14:46:43;;;;;;;5.07;4.57;;;13.20;95.50;;;;;;6164628;23;20438;-78
2024/01/28 14:49:21;;;;;;;4.17;3.87;;;13.10;95.90;;;;;;6160002;23;20414;-77
2024/01/28 14:51:51;;;;;;;5.03;4.63;;;13.10;95.80;;;;;;6159991;23;20424;-78
2024/01/28 14:54:23;;;;;;;5.43;4.40;;;13.00;95.70;;;;;;6157645;23;20836;-80
2024/01/28 14:56:59;;;;;;;5.40;5.00;;;13.00;96.00;;;;;;6158871;23;20412;-80
2024/01/28 14:59:28;;;;;;;5.07;4.57;;;12.90;96.70;;;;;;6134029;23;20763;-79
2024/01/28 15:01:58;;;;;;;4.80;4.50;;;12.90;96.70;;;;;;6162013;23;20472;-79
2024/01/28 15:08:09;;;;;;;5.30;4.90;;;12.80;97.60;;;;;;6024165;23;20793;-78
2024/01/28 15:10:57;;;;;;;5.77;4.93;;;12.80;97.80;;;;;;6158796;23;20888;-78
2024/01/28 15:13:26;;;;;;;5.93;5.53;;;12.70;98.10;;;;;;6139800;23;20438;-77
2024/01/28 15:15:55;;;;;;;5.80;5.30;;;12.70;98.40;;;;;;6158374;23;20403;-80
2024/01/28 15:21:07;;;;;;;5.93;5.40;;;12.50;99.20;;;;;;6153292;23;20483;-78
2024/01/28 15:23:35;;;;;;;6.67;6.07;;;12.40;99.40;;;;;;6159263;23;20511;-80
2024/01/28 15:26:19;;;;;;;7.03;6.33;;;12.40;99.60;;;;;;6157838;23;20446;-80
2024/01/28 15:28:48;;;;;;;7.33;6.63;;;12.30;99.90;;;;;;6157135;23;20400;-79
2024/01/28 15:31:15;;;;;;;7.07;6.37;;;12.30;99.90;;;;;;6158136;23;20458;-79
2024/01/28 15:33:43;;;;;;;6.67;6.00;;;12.20;99.90;;;;;;6158459;23;20420;-79
2024/01/28 15:36:12;;;;;;;7.60;6.90;;;12.20;99.90;;;;;;6162099;23;20422;-78
2024/01/28 15:38:40;;;;;;;7.37;6.77;;;12.20;99.90;;;;;;6163707;23;20412;-77
2024/01/28 15:41:12;;;;;;;7.20;6.57;;;12.10;99.90;;;;;;6162622;23;20404;-79
2024/01/28 15:43:40;;;;;;;7.87;7.20;;;12.00;99.90;;;;;;6163085;23;20432;-78
2024/01/28 15:46:14;;;;;;;9.23;7.30;;;11.90;99.90;;;;;;6164017;23;20455;-78
2024/01/28 15:48:42;;;;;;;9.33;7.10;;;11.60;99.90;;;;;;6163220;23;20472;-79
2024/01/28 15:51:11;;;;;;;8.13;7.50;;;11.80;99.90;;;;;;6164154;23;20414;-78
2024/01/28 15:53:39;;;;;;;10.93;7.70;;;11.60;99.90;;;;;;6162044;23;20550;-78
2024/01/28 15:56:08;;;;;;;10.80;8.10;;;11.50;99.90;;;;;;6161289;23;20443;-78
2024/01/28 15:58:35;;;;;;;7.17;6.47;;;11.60;99.90;;;;;;6160242;23;20407;-78
2024/01/28 16:01:04;;;;;;;8.40;7.33;;;11.30;99.90;;;;;;6160389;23;20418;-78
2024/01/28 16:03:37;;;;;;;9.50;8.40;;;11.20;99.90;;;;;;6163969;23;20456;-78
2024/01/28 16:06:12;;;;;;;9.37;8.27;;;11.00;99.90;;;;;;6159442;23;20412;-77
2024/01/28 16:08:47;;;;;;;8.87;7.90;;;10.80;99.90;;;;;;6161752;23;20415;-78
2024/01/28 16:11:24;;;;;;;8.80;7.80;;;10.80;99.90;;;;;;6161983;23;20416;-77
2024/01/28 16:13:55;;;;;;;8.87;8.03;;;10.60;99.90;;;;;;6162401;23;20439;-78
2024/01/28 16:16:29;;;;;;;8.83;7.93;;;10.70;99.90;;;;;;6162716;23;20668;-79
2024/01/28 16:19:01;;;;;;;8.37;7.00;;;10.80;99.90;;;;;;6161082;23;20415;-78
2024/01/28 16:21:31;;;;;;;7.80;7.00;;;10.50;99.90;;;;;;6159660;23;20479;-77
2024/01/28 16:24:05;;;;;;;7.60;6.93;;;10.50;99.90;;;;;;6160613;23;20499;-78
2024/01/28 16:26:35;;;;;;;9.43;7.60;;;10.30;99.90;;;;;;6159618;23;20501;-78
2024/01/28 16:29:06;;;;;;;9.07;7.03;;;10.10;99.90;;;;;;6160478;23;20411;-79
2024/01/28 16:31:34;;;;;;;9.60;8.70;;;10.10;99.90;;;;;;6161665;23;20500;-78
2024/01/28 16:34:08;;;;;;;9.10;8.03;;;9.90;99.90;;;;;;6161345;23;20615;-78
2024/01/28 16:36:45;;;;;;;35.83;29.50;;;9.90;99.90;;;;;;6162576;23;20408;-76
2024/01/28 16:39:17;;;;;;;42.20;37.63;;;9.60;99.90;;;;;;6160996;23;20388;-78
2024/01/28 16:41:48;;;;;;;19.43;15.30;;;9.60;99.90;;;;;;6160017;23;20803;-78
2024/01/28 16:44:31;;;;;;;10.60;9.50;;;9.60;99.90;;;;;;6160148;23;20482;-76
2024/01/28 16:47:05;;;;;;;14.10;9.37;;;;;;;;;;6162445;23;20415;-80
2024/01/28 16:49:42;;;;;;;14.63;12.00;;;9.40;99.90;;;;;;6164172;23;20523;-77
2024/01/28 16:52:28;;;;;;;12.23;10.70;;;;;;;;;;6163821;23;20446;-80
2024/01/28 16:54:59;;;;;;;10.20;9.20;;;9.20;99.90;;;;;;6163285;23;20411;-82
2024/01/28 16:57:40;;;;;;;9.17;8.27;;;9.10;99.90;;;;;;6163971;23;20420;-79
2024/01/28 17:00:13;;;;;;;9.87;8.87;;;;;;;;;;6164369;23;20773;-79
2024/01/28 17:02:42;;;;;;;10.00;7.83;;;;;;;;;;6163199;23;20432;-78
2024/01/28 17:05:11;;;;;;;9.50;8.60;;;;;;;;;;6163870;23;20466;-78
2024/01/28 17:07:39;;;;;;;8.27;7.47;;;;;;;;;;6161338;23;20436;-78
2024/01/28 17:10:07;;;;;;;9.93;8.93;;;;;;;;;;6162332;23;20442;-78
2024/01/28 17:12:39;;;;;;;8.20;7.47;;;;;;;;;;6163237;23;20452;-80
2024/01/28 17:15:09;;;;;;;8.47;7.53;;;;;;;;;;6161989;23;20423;-80
2024/01/28 17:17:46;;;;;;;8.57;7.70;;;8.30;99.90;;;;;;6162088;23;20529;-80
2024/01/28 17:20:17;;;;;;;8.90;8.00;;;8.30;99.90;;;;;;6162181;23;20422;-79
2024/01/28 17:22:44;;;;;;;9.00;8.20;;;8.20;99.90;;;;;;6163333;23;20458;-79
2024/01/28 17:25:12;;;;;;;12.40;9.00;;;8.10;99.90;;;;;;6164637;23;20427;-76
2024/01/28 17:27:43;;;;;;;11.60;8.77;;;8.00;99.90;;;;;;6165680;23;20460;-79
2024/01/28 17:30:11;;;;;;;8.90;7.60;;;8.00;99.90;;;;;;6165161;23;20408;-78
2024/01/28 17:33:03;;;;;;;11.20;8.33;;;7.80;99.90;;;;;;6163190;23;20436;-79
2024/01/28 17:36:02;;;;;;;9.93;7.70;;;7.60;99.90;;;;;;6166527;23;20471;-78
2024/01/28 17:44:57;;;;;;;10.03;9.03;;;7.60;99.90;;;;;;6068291;23;20398;-81
2024/01/28 17:48:21;;;;;;;9.30;8.10;;;7.50;99.90;;;;;;6145469;23;20427;-77
2024/01/28 17:50:58;;;;;;;10.50;7.97;;;7.50;99.90;;;;;;6159191;23;20412;-81
2024/01/28 17:57:32;;;;;;;21.40;16.33;;;7.40;99.90;;;;;;5954131;24;20406;-77
2024/01/28 18:03:42;;;;;;;;;;;;;;;;;;;;;
2024/01/28 18:07:14;;;;;;;16.97;13.73;;;7.40;99.90;;;;;;6125189;23;20727;-78
2024/01/28 18:16:20;;;;;;;13.73;12.33;;;7.40;99.90;;;;;;6154772;23;20396;-78
2024/01/28 18:26:11;;;;;;;20.63;14.07;;;6.70;99.90;;;;;;6158028;23;20426;-79
2024/01/28 18:35:46;;;;;;;13.07;11.33;;;6.40;99.90;;;;;;6157069;23;20415;-79
2024/01/28 18:39:05;;;;;;;14.63;10.60;;;6.70;99.90;;;;;;6162696;23;20807;-79
2024/01/28 18:48:50;;;;;;;;;;;;;;;;;;;;;
2024/01/28 18:55:25;;;;;;;14.77;11.60;;;6.80;99.90;;;;;;6051893;23;20451;-77
2024/01/28 19:02:07;;;;;;;14.60;10.53;;;6.30;99.90;;;;;;6136876;23;20459;-77
2024/01/28 19:17:17;;;;;;;10.30;9.30;;;5.90;99.90;;;;;;6088808;23;20461;-78
2024/01/28 19:23:35;;;;;;;11.97;10.00;;;5.70;99.90;;;;;;6160639;23;20454;-81
2024/01/28 19:26:32;;;;;;;15.30;11.10;;;6.00;99.90;;;;;;6162677;23;20440;-80
2024/01/28 19:29:31;;;;;;;17.07;11.47;;;5.70;99.90;;;;;;6161350;23;20411;-81
2024/01/28 19:32:31;;;;;;;11.70;10.50;;;5.60;99.90;;;;;;6163134;23;20914;-80
2024/01/28 19:35:21;;;;;;;11.60;10.40;;;5.60;99.90;;;;;;6162265;23;20472;-80
2024/01/28 19:38:30;;;;;;;12.67;10.00;;;5.20;99.90;;;;;;6161292;23;20492;-80
2024/01/28 19:41:44;;;;;;;11.10;9.90;;;5.40;99.90;;;;;;6162230;23;20406;-80
2024/01/28 19:44:22;;;;;;;11.83;10.57;;;5.30;99.90;;;;;;6164610;23;20503;-79
2024/01/28 19:47:29;;;;;;;11.47;9.93;;;5.50;99.90;;;;;;6165368;23;20420;-79
2024/01/28 19:50:10;;;;;;;11.70;9.97;;;5.20;99.90;;;;;;6160034;23;20442;-80
2024/01/28 19:56:31;;;;;;;12.07;10.87;;;4.80;99.90;;;;;;6164455;23;20384;-80
2024/01/28 19:59:01;;;;;;;12.70;11.40;;;5.10;99.90;;;;;;6070844;23;20416;-78
2024/01/28 20:01:30;;;;;;;11.73;10.53;;;5.20;99.90;;;;;;6164431;23;20387;-77
2024/01/28 20:08:22;;;;;;;22.07;15.87;;;4.90;99.90;;;;;;6097884;23;20420;-81
2024/01/28 20:15:22;;;;;;;13.90;11.47;;;4.90;99.90;;;;;;5942088;23;20453;-79
2024/01/28 20:21:05;;;;;;;12.80;10.40;;;4.70;99.90;;;;;;6087073;23;20394;-79
2024/01/28 20:23:32;;;;;;;12.00;10.90;;;4.70;99.90;;;;;;6159668;23;20455;-79
2024/01/28 20:26:00;;;;;;;11.20;10.10;;;4.60;99.90;;;;;;6163624;23;20403;-80
2024/01/28 20:28:28;;;;;;;32.73;22.83;;;4.70;99.90;;;;;;6160761;23;20440;-79
2024/01/28 20:30:56;;;;;;;20.60;16.13;;;4.20;99.90;;;;;;6161432;23;20417;-80
2024/01/28 20:33:24;;;;;;;19.37;16.13;;;4.40;99.90;;;;;;6162093;23;20460;-80
2024/01/28 20:35:57;;;;;;;12.60;11.30;;;4.70;99.90;;;;;;6159301;23;20432;-79
2024/01/28 20:38:26;;;;;;;12.70;11.50;;;4.40;99.90;;;;;;6157864;23;20415;-76
2024/01/28 20:41:02;;;;;;;10.90;9.80;;;4.30;99.90;;;;;;6157447;23;20410;-80
2024/01/28 20:46:45;;;;;;;10.77;9.60;;;4.30;99.90;;;;;;6157204;23;20424;-78
2024/01/28 20:49:12;;;;;;;12.67;10.77;;;4.10;99.90;;;;;;6158264;23;20756;-79
2024/01/28 20:51:42;;;;;;;13.77;10.90;;;4.30;99.90;;;;;;6157835;23;20416;-78
2024/01/28 20:55:02;;;;;;;13.40;10.70;;;4.00;99.90;;;;;;6157268;23;20440;-79
2024/01/28 20:57:46;;;;;;;13.27;11.77;;;4.00;99.90;;;;;;6142897;23;20424;-79
2024/01/28 21:00:16;;;;;;;13.27;10.90;;;4.00;99.90;;;;;;6159433;23;20423;-79
2024/01/28 21:02:46;;;;;;;13.00;11.10;;;4.00;99.90;;;;;;6158045;23;20435;-76
2024/01/28 21:05:17;;;;;;;13.00;10.83;;;3.90;99.90;;;;;;6158209;23;20412;-77
2024/01/28 21:07:46;;;;;;;13.67;12.03;;;4.10;99.90;;;;;;6158402;23;20405;-77
2024/01/28 21:10:15;;;;;;;15.00;12.00;;;3.90;99.90;;;;;;6157779;23;20820;-77
2024/01/28 21:13:03;;;;;;;12.07;10.87;;;3.90;99.90;;;;;;6158728;23;20464;-76
2024/01/28 21:21:30;;;;;;;14.13;11.30;;;3.80;99.90;;;;;;6151922;23;20403;-79
2024/01/28 21:24:08;;;;;;;13.83;10.80;;;3.50;99.90;;;;;;6159946;23;20516;-78
2024/01/28 21:26:45;;;;;;;13.90;12.50;;;3.70;99.90;;;;;;6158633;23;20420;-78
2024/01/28 21:29:23;;;;;;;13.67;12.37;;;3.60;99.90;;;;;;6158254;23;20426;-79
2024/01/28 21:31:52;;;;;;;12.80;11.50;;;3.60;99.90;;;;;;6159598;23;20444;-77
2024/01/28 21:37:54;;;;;;;13.87;12.00;;;3.60;99.90;;;;;;6067764;23;20407;-78
2024/01/28 21:40:24;;;;;;;12.90;11.60;;;3.60;99.90;;;;;;6158095;23;20420;-76
2024/01/28 21:43:18;;;;;;;13.10;11.70;;;3.60;99.90;;;;;;6158344;23;20923;-78
2024/01/28 21:45:54;;;;;;;12.77;11.37;;;3.40;99.90;;;;;;6158061;23;20408;-77
2024/01/28 21:48:26;;;;;;;13.30;12.00;;;3.40;99.90;;;;;;6158859;23;20439;-78
2024/01/28 21:51:04;;;;;;;12.37;10.87;;;3.40;99.90;;;;;;6159741;23;20411;-78
2024/01/28 21:53:43;;;;;;;12.90;11.03;;;3.40;99.90;;;;;;6159155;23;20475;-77
2024/01/28 21:56:31;;;;;;;12.23;10.90;;;3.00;99.90;;;;;;6160038;23;20694;-78
2024/01/28 21:59:16;;;;;;;12.17;10.80;;;3.20;99.90;;;;;;6159858;23;20413;-77
2024/01/28 22:01:52;;;;;;;12.47;11.13;;;3.20;99.90;;;;;;6160366;23;20384;-77
2024/01/28 22:04:26;;;;;;;12.97;11.37;;;3.20;99.90;;;;;;6159258;23;20766;-78
2024/01/28 22:07:02;;;;;;;12.87;11.53;;;3.20;99.90;;;;;;6159060;23;20412;-77
2024/01/28 22:09:31;;;;;;;12.50;10.80;;;2.80;99.90;;;;;;6158749;23;20902;-76
2024/01/28 22:11:59;;;;;;;11.37;9.97;;;3.10;99.90;;;;;;6159783;23;20416;-77
2024/01/28 22:14:33;;;;;;;11.90;9.93;;;3.10;99.90;;;;;;6160304;23;20835;-77
2024/01/28 22:17:04;;;;;;;12.93;11.63;;;3.10;99.90;;;;;;6160188;23;20475;-78
2024/01/28 22:19:38;;;;;;;12.90;11.70;;;3.10;99.90;;;;;;6159105;23;20412;-77
2024/01/28 22:22:11;;;;;;;14.30;10.57;;;3.00;99.90;;;;;;6159272;23;20412;-78
2024/01/28 22:24:45;;;;;;;12.20;11.00;;;3.00;99.90;;;;;;6161627;23;20414;-77
2024/01/28 22:27:12;;;;;;;12.53;11.20;;;3.00;99.90;;;;;;6162738;23;20420;-78
2024/01/28 22:29:42;;;;;;;11.30;10.20;;;2.60;99.90;;;;;;6163757;23;20408;-77
2024/01/28 22:32:09;;;;;;;13.10;11.70;;;3.20;99.90;;;;;;6163705;23;20755;-77
2024/01/28 22:34:37;;;;;;;25.13;19.30;;;2.90;99.90;;;;;;6162541;23;20451;-77
2024/01/28 22:37:05;;;;;;;21.17;17.73;;;3.10;99.90;;;;;;6163782;23;20416;-76
2024/01/28 22:39:32;;;;;;;13.33;11.27;;;2.90;99.90;;;;;;6164416;23;20442;-77
2024/01/28 22:42:00;;;;;;;13.47;11.40;;;2.90;99.90;;;;;;6162793;23;20415;-79
2024/01/28 22:44:28;;;;;;;12.20;11.00;;;3.00;99.90;;;;;;6162589;23;20767;-76
2024/01/28 22:47:01;;;;;;;14.10;12.60;;;2.40;99.90;;;;;;6161787;23;20412;-78
2024/01/28 22:49:29;;;;;;;13.70;12.30;;;2.70;99.90;;;;;;6159143;23;20422;-78
2024/01/28 22:51:58;;;;;;;13.33;11.40;;;2.70;99.90;;;;;;6158716;23;20495;-78
2024/01/28 22:54:26;;;;;;;16.30;13.87;;;2.70;99.90;;;;;;6160265;23;20444;-76
2024/01/28 22:56:54;;;;;;;17.50;15.70;;;2.80;99.90;;;;;;6161850;23;20447;-77
2024/01/28 22:59:24;;;;;;;14.63;13.23;;;2.70;99.90;;;;;;6163400;23;20412;-75
2024/01/28 23:01:54;;;;;;;13.20;11.77;;;2.70;99.90;;;;;;6164509;23;20389;-75
2024/01/28 23:04:23;;;;;;;12.73;11.43;;;2.60;99.90;;;;;;6163029;23;20427;-76
2024/01/28 23:06:50;;;;;;;14.60;13.00;;;2.80;99.90;;;;;;6161667;23;20411;-77
2024/01/28 23:09:30;;;;;;;14.03;12.67;;;2.50;99.90;;;;;;6163664;23;20412;-75
2024/01/28 23:12:05;;;;;;;13.90;12.37;;;2.20;99.90;;;;;;6164337;23;20427;-77
2024/01/28 23:14:35;;;;;;;13.40;12.10;;;2.50;99.90;;;;;;6164730;23;21000;-78
2024/01/28 23:17:02;;;;;;;12.80;11.70;;;2.70;99.90;;;;;;6164761;23;20408;-76
2024/01/28 23:19:35;;;;;;;14.23;11.73;;;2.50;99.90;;;;;;6164859;23;20434;-77
2024/01/28 23:22:02;;;;;;;13.00;11.87;;;2.40;99.90;;;;;;6164402;23;20443;-76
2024/01/28 23:24:38;;;;;;;12.97;11.67;;;2.50;99.90;;;;;;6162080;23;20461;-78
2024/01/28 23:27:11;;;;;;;13.30;12.00;;;2.50;99.90;;;;;;6160595;23;20419;-78
2024/01/28 23:29:39;;;;;;;15.80;13.00;;;2.40;99.90;;;;;;6161315;23;20481;-78
2024/01/28 23:32:07;;;;;;;15.03;12.03;;;2.40;99.90;;;;;;6161349;23;20404;-76
2024/01/28 23:34:37;;;;;;;13.17;11.77;;;2.40;99.90;;;;;;6160425;23;20532;-76
2024/01/28 23:37:07;;;;;;;14.43;13.13;;;2.30;99.90;;;;;;6161030;23;20918;-76
2024/01/28 23:39:34;;;;;;;15.00;12.10;;;2.60;99.90;;;;;;6162280;23;20431;-76
2024/01/28 23:42:03;;;;;;;14.17;12.70;;;2.50;99.90;;;;;;6164011;23;20809;-77
2024/01/28 23:44:31;;;;;;;13.13;11.93;;;2.40;99.90;;;;;;6163648;23;20448;-76
2024/01/28 23:46:59;;;;;;;14.33;12.90;;;2.30;99.90;;;;;;6163964;23;20421;-75
2024/01/28 23:49:26;;;;;;;12.90;11.60;;;2.20;99.90;;;;;;6163989;23;20427;-76
2024/01/28 23:51:57;;;;;;;13.00;11.70;;;2.20;99.90;;;;;;6163036;23;20700;-76
2024/01/28 23:54:24;;;;;;;12.70;11.40;;;2.40;99.90;;;;;;6162207;23;20458;-76
2024/01/28 23:56:52;;;;;;;13.93;12.10;;;2.20;99.90;;;;;;6163989;23;20471;-77
2024/01/28 23:59:22;;;;;;;13.90;12.70;;;2.40;99.90;;;;;;6163799;23;20423;-76
